Time;durP1;ratioP1;P1;durP2;ratioP2;P2;SDS_P1;SDS_P2;PMS_P1;PMS_P2;Temp;Humidity;BMP_temperature;BMP_pressure;BME280_temperature;BME280_humidity;BME280_pressure;Samples;Min_cycle;Max_cycle;Signal;HPM_P1;HPM_P2
2021/05/17 00:00:24;;;;;;;4.80;1.70;;;27.90;99.90;;;;;;5036442;28;20983;-91
2021/05/17 00:02:57;;;;;;;3.43;1.50;;;27.90;99.90;;;;;;5039596;28;20198;-91
2021/05/17 00:05:29;;;;;;;2.60;1.47;;;28.00;99.90;;;;;;5038369;28;20218;-90
2021/05/17 00:08:00;;;;;;;6.23;1.60;;;27.90;99.90;;;;;;5039858;28;20213;-90
2021/05/17 00:10:31;;;;;;;3.70;1.30;;;28.10;99.90;;;;;;5021815;28;20263;-90
2021/05/17 00:13:03;;;;;;;3.10;1.87;;;28.50;99.90;;;;;;5039407;28;20661;-90
2021/05/17 00:15:37;;;;;;;1.60;1.40;;;28.40;99.90;;;;;;5039507;28;20205;-89
2021/05/17 00:18:09;;;;;;;3.57;1.50;;;28.30;99.90;;;;;;5037259;28;20208;-90
2021/05/17 00:20:40;;;;;;;2.00;1.60;;;28.30;99.90;;;;;;5025023;28;20265;-89
2021/05/17 00:23:12;;;;;;;3.97;1.90;;;28.50;99.90;;;;;;5047513;28;20197;-90
2021/05/17 00:25:44;;;;;;;3.30;1.90;;;28.30;99.90;;;;;;5037918;28;20213;-90
2021/05/17 00:28:18;;;;;;;5.30;1.87;;;28.10;99.90;;;;;;5027978;28;20264;-90
2021/05/17 00:30:52;;;;;;;4.07;1.87;;;28.20;99.90;;;;;;5017713;28;20205;-91
2021/05/17 00:33:24;;;;;;;5.00;1.43;;;28.20;99.90;;;;;;5018193;28;20256;-91
2021/05/17 00:35:56;;;;;;;4.43;1.70;;;28.00;99.90;;;;;;5000025;28;20677;-90
2021/05/17 00:38:33;;;;;;;2.50;1.50;;;27.70;99.90;;;;;;5018574;28;20205;-91
2021/05/17 00:41:05;;;;;;;2.20;1.40;;;27.60;99.90;;;;;;5033785;28;20232;-90
2021/05/17 00:43:37;;;;;;;4.00;1.60;;;27.40;99.90;;;;;;5018619;28;20347;-91
2021/05/17 00:46:11;;;;;;;3.63;1.53;;;27.30;99.90;;;;;;5020278;28;20308;-91
2021/05/17 00:48:42;;;;;;;2.63;1.40;;;27.10;99.90;;;;;;5036205;28;20205;-91
2021/05/17 00:51:13;;;;;;;2.73;1.37;;;27.20;99.90;;;;;;5035511;28;20228;-90
2021/05/17 00:53:44;;;;;;;1.60;1.23;;;27.20;99.90;;;;;;5035954;28;20212;-90
2021/05/17 00:56:15;;;;;;;2.80;1.40;;;27.60;99.90;;;;;;5035709;28;20216;-89
2021/05/17 00:58:47;;;;;;;2.20;1.47;;;28.10;99.70;;;;;;5035485;28;20668;-89
2021/05/17 01:01:23;;;;;;;5.07;1.70;;;28.50;99.70;;;;;;5034481;28;20237;-90
2021/05/17 01:03:54;;;;;;;4.77;1.57;;;29.20;99.10;;;;;;5035200;28;20732;-89
2021/05/17 01:06:26;;;;;;;2.87;1.13;;;29.30;97.70;;;;;;5035300;28;20212;-90
2021/05/17 01:09:04;;;;;;;2.93;1.33;;;29.70;97.80;;;;;;5036017;28;20213;-90
2021/05/17 01:11:37;;;;;;;3.20;1.63;;;29.90;97.10;;;;;;5018047;28;20212;-90
2021/05/17 01:14:10;;;;;;;2.40;1.30;;;29.20;96.70;;;;;;5034015;28;20340;-90
2021/05/17 01:16:42;;;;;;;1.97;1.00;;;29.20;97.20;;;;;;5019279;28;20205;-90
2021/05/17 01:19:14;;;;;;;3.83;1.53;;;29.40;96.90;;;;;;5035688;28;20640;-90
2021/05/17 01:21:56;;;;;;;2.77;1.23;;;29.20;96.60;;;;;;5034192;28;20263;-90
2021/05/17 01:24:30;;;;;;;2.70;1.40;;;29.60;95.70;;;;;;5035348;28;20209;-89
2021/05/17 01:27:01;;;;;;;4.07;1.10;;;29.70;96.70;;;;;;5034989;28;20267;-89
2021/05/17 01:29:33;;;;;;;2.93;1.20;;;29.20;95.70;;;;;;5037910;28;20311;-91
2021/05/17 01:32:04;;;;;;;2.67;1.13;;;29.10;95.50;;;;;;5036032;28;20209;-90
2021/05/17 01:34:35;;;;;;;2.93;1.10;;;29.50;96.10;;;;;;5035300;28;20208;-90
2021/05/17 01:37:08;;;;;;;3.70;1.27;;;29.40;95.10;;;;;;5035342;28;20212;-91
2021/05/17 01:39:45;;;;;;;4.47;1.20;;;29.20;95.30;;;;;;5037394;28;20212;-90
2021/05/17 01:42:17;;;;;;;3.73;1.30;;;29.60;94.80;;;;;;5033915;28;20287;-91
2021/05/17 01:44:49;;;;;;;3.40;1.20;;;29.70;94.50;;;;;;5036592;28;20290;-90
2021/05/17 01:47:24;;;;;;;3.63;1.40;;;29.60;94.30;;;;;;5035006;28;20236;-91
2021/05/17 01:49:59;;;;;;;2.23;1.00;;;29.40;94.30;;;;;;5038938;28;20657;-91
2021/05/17 01:52:35;;;;;;;4.43;1.50;;;29.70;94.10;;;;;;5036944;28;20255;-90
2021/05/17 01:55:09;;;;;;;2.83;1.47;;;30.00;93.40;;;;;;5034794;28;20700;-90
2021/05/17 01:57:40;;;;;;;5.13;1.30;;;30.10;92.90;;;;;;5035147;28;20215;-89
2021/05/17 02:00:17;;;;;;;3.53;1.30;;;30.20;92.10;;;;;;5034101;28;20213;-90
2021/05/17 02:02:47;;;;;;;3.60;1.20;;;29.80;92.10;;;;;;5034867;28;20642;-90
2021/05/17 02:05:19;;;;;;;5.20;1.50;;;29.00;93.10;;;;;;5035681;28;20232;-89
2021/05/17 02:07:50;;;;;;;2.33;1.10;;;27.90;94.60;;;;;;5020100;28;20653;-90
2021/05/17 02:10:22;;;;;;;3.13;1.10;;;27.20;92.30;;;;;;5036796;28;20274;-91
2021/05/17 02:12:53;;;;;;;3.03;1.10;;;26.60;91.70;;;;;;5035131;28;20415;-91
2021/05/17 02:15:25;;;;;;;2.20;1.07;;;26.10;90.90;;;;;;5034396;28;20350;-91
2021/05/17 02:18:08;;;;;;;1.57;0.90;;;25.80;91.10;;;;;;5035338;28;20213;-92
2021/05/17 02:20:40;;;;;;;2.57;1.30;;;25.60;91.20;;;;;;5034317;28;20217;-91
2021/05/17 02:23:15;;;;;;;3.77;0.93;;;25.40;91.70;;;;;;5037783;28;20231;-91
2021/05/17 02:25:49;;;;;;;3.10;1.23;;;25.20;91.80;;;;;;5055726;28;20270;-91
2021/05/17 02:28:20;;;;;;;2.80;1.23;;;25.00;92.20;;;;;;5059089;28;20204;-91
2021/05/17 02:30:51;;;;;;;2.43;1.10;;;24.90;92.90;;;;;;5059028;28;20749;-91
2021/05/17 02:33:22;;;;;;;2.23;1.10;;;24.70;93.50;;;;;;5060008;28;20228;-91
2021/05/17 02:35:53;;;;;;;1.80;1.00;;;24.40;93.40;;;;;;5059445;28;20208;-91
2021/05/17 02:38:24;;;;;;;2.93;1.20;;;24.20;92.40;;;;;;5062294;28;20216;-91
2021/05/17 02:40:59;;;;;;;2.50;1.27;;;24.10;93.20;;;;;;5042662;28;20220;-91
2021/05/17 02:43:31;;;;;;;1.97;1.30;;;24.00;94.50;;;;;;5039659;28;20262;-91
2021/05/17 02:46:03;;;;;;;3.23;1.37;;;23.80;93.30;;;;;;5022758;28;20652;-91
2021/05/17 02:48:34;;;;;;;1.77;1.30;;;23.70;93.20;;;;;;5059429;28;20249;-91
2021/05/17 02:51:09;;;;;;;7.63;4.37;;;23.70;93.40;;;;;;5059248;28;20275;-90
2021/05/17 02:54:09;;;;;;;4.47;1.37;;;23.60;94.20;;;;;;5055543;28;20200;-91
2021/05/17 02:57:09;;;;;;;2.53;1.47;;;23.50;94.00;;;;;;5040316;28;20201;-92
2021/05/17 03:00:07;;;;;;;3.83;1.20;;;23.30;94.80;;;;;;5039075;28;20240;-91
2021/05/17 03:03:02;;;;;;;2.50;1.07;;;23.10;94.90;;;;;;5043375;28;20237;-91
2021/05/17 03:05:34;;;;;;;5.17;1.50;;;23.00;95.60;;;;;;5039205;28;20688;-91
2021/05/17 03:08:07;;;;;;;2.80;1.70;;;22.90;96.40;;;;;;5040520;28;20217;-90
2021/05/17 03:10:40;;;;;;;2.00;1.40;;;22.80;96.80;;;;;;5037874;28;20221;-91
2021/05/17 03:13:14;;;;;;;4.80;1.83;;;22.70;97.50;;;;;;5042856;28;20236;-91
2021/05/17 03:15:47;;;;;;;4.13;1.40;;;22.60;98.60;;;;;;5041353;28;20274;-91
2021/05/17 03:18:19;;;;;;;1.60;1.30;;;22.40;99.30;;;;;;5038957;28;20212;-91
2021/05/17 03:20:53;;;;;;;4.70;1.67;;;22.20;99.90;;;;;;5038259;28;20213;-91
2021/05/17 03:23:25;;;;;;;3.37;1.50;;;22.00;99.90;;;;;;5041217;28;20204;-91
2021/05/17 03:25:56;;;;;;;3.00;1.27;;;21.80;99.90;;;;;;5021903;28;20209;-90
2021/05/17 03:28:28;;;;;;;3.50;1.40;;;21.70;99.90;;;;;;5038743;28;20347;-90
2021/05/17 03:30:59;;;;;;;3.70;1.60;;;21.60;99.90;;;;;;5037617;28;20271;-91
2021/05/17 03:33:30;;;;;;;2.37;1.40;;;21.40;99.90;;;;;;5038553;28;20268;-91
2021/05/17 03:36:00;;;;;;;3.13;1.20;;;21.20;99.90;;;;;;5038645;28;20248;-91
2021/05/17 03:38:31;;;;;;;3.80;1.40;;;21.10;99.90;;;;;;5037732;28;20232;-90
2021/05/17 03:41:02;;;;;;;3.40;1.67;;;21.00;99.90;;;;;;5038195;28;20216;-92
2021/05/17 03:43:35;;;;;;;2.97;1.27;;;20.80;99.90;;;;;;5038465;28;20263;-92
2021/05/17 03:46:06;;;;;;;3.60;1.30;;;20.60;99.90;;;;;;5038350;28;20217;-92
2021/05/17 03:48:41;;;;;;;3.13;1.63;;;20.50;99.90;;;;;;5038870;28;20232;-90
2021/05/17 03:51:12;;;;;;;4.13;1.60;;;20.30;99.90;;;;;;5022210;28;20243;-92
2021/05/17 03:53:43;;;;;;;3.20;1.60;;;20.30;99.90;;;;;;5046361;28;20231;-91
2021/05/17 03:56:14;;;;;;;19.00;6.00;;;20.10;99.90;;;;;;5049262;28;20239;-91
2021/05/17 03:58:47;;;;;;;16.83;5.17;;;20.00;99.90;;;;;;5055675;28;20221;-92
2021/05/17 04:01:19;;;;;;;3.37;1.60;;;19.80;99.90;;;;;;5036230;28;20200;-91
2021/05/17 04:03:52;;;;;;;2.57;1.40;;;19.70;99.90;;;;;;5058216;28;20193;-92
2021/05/17 04:06:26;;;;;;;3.10;1.67;;;19.70;99.90;;;;;;5058339;28;20343;-91
2021/05/17 04:14:34;;;;;;;3.80;1.40;;;19.30;99.90;;;;;;5052573;28;20232;-91
2021/05/17 04:17:05;;;;;;;3.63;1.87;;;19.20;99.90;;;;;;5044466;28;20224;-91
2021/05/17 04:19:35;;;;;;;3.83;1.77;;;19.10;99.90;;;;;;5038249;28;20640;-90
2021/05/17 04:22:06;;;;;;;4.67;2.53;;;18.90;99.90;;;;;;5037423;28;20636;-91
2021/05/17 04:24:36;;;;;;;7.30;2.60;;;18.80;99.90;;;;;;5038097;28;20212;-91
2021/05/17 04:27:07;;;;;;;4.60;2.07;;;18.60;99.90;;;;;;5038199;28;20224;-92
2021/05/17 04:29:39;;;;;;;5.10;2.13;;;18.40;99.90;;;;;;5038141;28;20213;-90
2021/05/17 04:32:10;;;;;;;5.60;2.07;;;18.20;99.90;;;;;;5038265;28;20295;-90
2021/05/17 04:34:41;;;;;;;5.63;2.37;;;18.00;99.90;;;;;;5052554;28;20208;-90
2021/05/17 04:37:12;;;;;;;5.90;2.50;;;17.90;99.90;;;;;;5072625;28;20200;-90
2021/05/17 04:39:42;;;;;;;4.97;2.63;;;17.80;99.90;;;;;;5064588;28;20200;-95
2021/05/17 04:42:16;;;;;;;7.70;2.73;;;17.80;99.90;;;;;;5041568;28;20233;-91
2021/05/17 04:44:48;;;;;;;6.70;2.20;;;17.60;99.90;;;;;;5057785;28;20212;-92
2021/05/17 04:47:19;;;;;;;6.07;2.63;;;17.60;99.90;;;;;;5057546;28;20215;-91
2021/05/17 04:49:50;;;;;;;5.07;2.30;;;17.50;99.90;;;;;;5038696;28;20267;-91
2021/05/17 04:52:21;;;;;;;5.03;2.13;;;17.40;99.90;;;;;;5038371;28;20227;-91
2021/05/17 04:54:53;;;;;;;6.53;2.13;;;17.30;99.90;;;;;;5056802;28;20210;-92
2021/05/17 04:57:23;;;;;;;5.53;1.93;;;17.30;99.90;;;;;;5058067;28;20213;-91
2021/05/17 05:00:08;;;;;;;5.10;1.90;;;17.20;99.90;;;;;;5058375;28;20279;-92
2021/05/17 05:02:41;;;;;;;7.63;1.97;;;17.10;99.90;;;;;;5040135;28;20243;-91
2021/05/17 05:05:13;;;;;;;5.30;2.00;;;17.00;99.90;;;;;;5057740;28;20208;-91
2021/05/17 05:07:45;;;;;;;6.13;2.10;;;17.00;99.90;;;;;;5057115;28;20392;-91
2021/05/17 05:10:15;;;;;;;6.00;1.93;;;16.90;99.90;;;;;;5061391;28;20231;-91
2021/05/17 05:12:46;;;;;;;5.33;2.20;;;16.80;99.90;;;;;;5076685;28;20207;-89
2021/05/17 05:15:18;;;;;;;3.70;1.90;;;16.80;99.90;;;;;;5076648;28;20188;-92
2021/05/17 05:17:48;;;;;;;6.03;2.40;;;16.70;99.90;;;;;;5065463;28;20219;-90
2021/05/17 05:20:19;;;;;;;5.10;2.00;;;16.60;99.90;;;;;;5056377;28;20676;-91
2021/05/17 05:22:50;;;;;;;5.23;2.20;;;16.60;99.90;;;;;;5056267;28;20279;-91
2021/05/17 05:25:22;;;;;;;3.00;1.83;;;16.60;99.90;;;;;;5056308;28;20216;-91
2021/05/17 05:27:56;;;;;;;5.33;1.93;;;16.50;99.90;;;;;;5057464;28;20285;-89
2021/05/17 05:30:39;;;;;;;4.53;2.17;;;16.40;99.90;;;;;;5059756;28;20290;-91
2021/05/17 05:33:15;;;;;;;4.73;2.00;;;16.50;99.90;;;;;;5066765;28;20207;-91
2021/05/17 05:35:46;;;;;;;3.27;1.93;;;16.40;99.90;;;;;;5068883;28;20204;-91
2021/05/17 05:38:17;;;;;;;2.97;1.60;;;16.40;99.90;;;;;;5067178;28;20204;-90
2021/05/17 05:40:47;;;;;;;5.87;1.97;;;16.40;99.90;;;;;;5066766;28;20208;-91
2021/05/17 05:43:18;;;;;;;7.00;2.17;;;16.40;99.90;;;;;;5066353;28;20236;-91
2021/05/17 05:45:51;;;;;;;4.27;1.70;;;16.40;99.90;;;;;;5057218;28;20208;-91
2021/05/17 05:48:21;;;;;;;8.97;2.00;;;16.40;99.90;;;;;;5024915;28;20736;-90
2021/05/17 05:50:53;;;;;;;4.93;1.80;;;16.30;99.90;;;;;;5014853;28;20284;-91
2021/05/17 05:53:24;;;;;;;4.70;1.90;;;16.20;99.90;;;;;;5015614;28;20209;-91
2021/05/17 05:55:56;;;;;;;5.40;1.83;;;16.20;99.90;;;;;;5016273;28;20210;-91
2021/05/17 05:58:27;;;;;;;6.47;2.07;;;16.10;99.90;;;;;;5015677;28;20666;-90
2021/05/17 06:00:58;;;;;;;3.90;1.70;;;16.10;99.90;;;;;;5013288;28;20568;-90
2021/05/17 06:03:29;;;;;;;5.27;1.80;;;16.10;99.90;;;;;;5015501;28;20241;-90
2021/05/17 06:05:59;;;;;;;5.93;2.10;;;16.00;99.90;;;;;;5015639;28;20213;-89
2021/05/17 06:08:33;;;;;;;4.57;2.00;;;15.90;99.90;;;;;;5015788;28;20286;-90
2021/05/17 06:11:05;;;;;;;3.33;1.70;;;15.80;99.90;;;;;;5014268;28;20229;-90
2021/05/17 06:13:37;;;;;;;5.20;1.87;;;15.70;99.90;;;;;;5017629;28;20236;-90
2021/05/17 06:16:10;;;;;;;4.83;1.97;;;15.80;99.90;;;;;;5015123;28;20225;-91
2021/05/17 06:18:41;;;;;;;6.73;2.30;;;15.90;99.90;;;;;;5017571;28;20217;-90
2021/05/17 06:21:12;;;;;;;5.77;2.37;;;15.80;99.90;;;;;;5017068;28;20217;-90
2021/05/17 06:23:44;;;;;;;6.43;2.30;;;15.70;99.90;;;;;;5014850;28;20716;-90
2021/05/17 06:26:15;;;;;;;5.57;2.50;;;15.60;99.90;;;;;;5019919;28;20404;-90
2021/05/17 06:28:46;;;;;;;6.00;2.47;;;15.60;99.90;;;;;;5015529;28;20275;-91
2021/05/17 06:31:19;;;;;;;4.53;2.50;;;15.60;99.90;;;;;;5014422;28;20206;-90
2021/05/17 06:33:52;;;;;;;6.63;2.47;;;15.50;99.90;;;;;;5015816;28;20213;-91
2021/05/17 06:36:22;;;;;;;6.37;2.30;;;15.40;99.90;;;;;;5015130;28;20225;-91
2021/05/17 06:38:54;;;;;;;6.33;2.50;;;15.40;99.90;;;;;;5014983;28;20548;-91
2021/05/17 06:41:25;;;;;;;6.20;2.20;;;15.30;99.90;;;;;;5031087;28;20243;-91
2021/05/17 06:43:56;;;;;;;5.87;2.60;;;15.30;99.90;;;;;;5034265;28;20303;-90
2021/05/17 06:46:27;;;;;;;3.67;2.20;;;15.20;99.90;;;;;;5034370;28;20201;-91
2021/05/17 06:48:58;;;;;;;6.70;2.60;;;15.20;99.90;;;;;;5034185;28;20240;-90
2021/05/17 06:51:30;;;;;;;7.97;2.20;;;15.20;99.90;;;;;;5033907;28;20221;-91
2021/05/17 06:54:02;;;;;;;5.03;2.20;;;15.10;99.90;;;;;;5034631;28;20236;-91
2021/05/17 06:56:41;;;;;;;4.83;2.40;;;15.10;99.90;;;;;;5017542;28;20289;-91
2021/05/17 06:59:18;;;;;;;5.17;2.53;;;15.10;99.90;;;;;;5034658;28;20216;-90
2021/05/17 07:01:51;;;;;;;5.93;2.27;;;15.10;99.90;;;;;;5026119;28;20206;-90
2021/05/17 07:04:21;;;;;;;5.20;1.90;;;15.10;99.90;;;;;;5014559;28;20229;-90
2021/05/17 07:06:55;;;;;;;6.37;2.13;;;15.00;99.90;;;;;;5014694;28;20213;-90
2021/05/17 07:12:14;;;;;;;5.67;2.17;;;14.80;99.90;;;;;;5014576;28;20234;-90
2021/05/17 07:14:44;;;;;;;4.93;2.00;;;14.90;99.90;;;;;;5018457;28;20652;-90
2021/05/17 07:17:17;;;;;;;5.50;2.13;;;14.90;99.90;;;;;;5018355;28;20249;-90
2021/05/17 07:19:48;;;;;;;3.47;1.80;;;14.80;99.90;;;;;;5018780;28;20651;-90
2021/05/17 07:25:08;;;;;;;4.27;1.90;;;14.80;99.90;;;;;;5018222;28;20963;-90
2021/05/17 07:27:40;;;;;;;5.67;2.20;;;14.80;99.90;;;;;;5018482;28;20210;-90
2021/05/17 07:30:11;;;;;;;4.47;2.20;;;14.70;99.90;;;;;;5017834;28;20233;-91
2021/05/17 07:32:44;;;;;;;4.37;1.90;;;14.70;99.90;;;;;;5020683;28;20205;-91
2021/05/17 07:35:16;;;;;;;4.20;1.90;;;14.70;99.90;;;;;;5038393;28;20217;-91
2021/05/17 07:37:47;;;;;;;3.43;1.77;;;14.70;99.90;;;;;;5022172;28;20193;-90
2021/05/17 07:40:17;;;;;;;6.97;2.03;;;14.60;99.90;;;;;;5031305;28;20256;-91
2021/05/17 07:42:49;;;;;;;3.83;1.83;;;14.60;99.90;;;;;;5019957;28;20242;-91
2021/05/17 07:45:23;;;;;;;5.30;1.80;;;14.50;99.90;;;;;;5019332;28;20213;-91
2021/05/17 07:47:55;;;;;;;2.63;1.70;;;14.50;99.90;;;;;;5019282;28;20218;-91
2021/05/17 07:50:26;;;;;;;3.77;1.87;;;14.40;99.90;;;;;;5017564;28;20217;-92
2021/05/17 07:52:56;;;;;;;4.70;1.77;;;14.30;99.90;;;;;;5018185;28;20287;-91
2021/05/17 07:55:26;;;;;;;4.53;1.90;;;14.30;99.90;;;;;;5017954;28;20665;-91
2021/05/17 07:57:57;;;;;;;4.33;1.93;;;14.20;99.90;;;;;;5018080;28;20202;-91
2021/05/17 08:00:28;;;;;;;5.20;1.90;;;14.10;99.90;;;;;;5016655;28;20276;-91
2021/05/17 08:03:01;;;;;;;5.70;2.17;;;14.20;99.90;;;;;;5017349;28;20251;-90
2021/05/17 08:05:41;;;;;;;6.17;1.93;;;14.20;99.90;;;;;;5017596;28;20587;-90
2021/05/17 08:08:13;;;;;;;4.57;2.10;;;14.10;99.90;;;;;;5017271;28;20932;-90
2021/05/17 08:10:47;;;;;;;3.07;1.70;;;14.10;99.90;;;;;;5018333;28;20674;-90
2021/05/17 08:13:18;;;;;;;5.67;1.80;;;14.10;99.90;;;;;;5000802;28;20219;-91
2021/05/17 08:16:10;;;;;;;3.83;1.60;;;14.10;99.90;;;;;;5017295;28;20297;-91
2021/05/17 08:18:43;;;;;;;5.33;1.77;;;14.00;99.90;;;;;;5020052;28;20229;-90
2021/05/17 08:21:17;;;;;;;5.57;1.60;;;13.90;99.90;;;;;;5019290;28;20316;-91
2021/05/17 08:23:48;;;;;;;2.70;1.87;;;13.90;99.90;;;;;;5015682;28;20230;-90
2021/05/17 08:26:18;;;;;;;6.30;2.03;;;13.90;99.90;;;;;;5016621;28;20217;-91
2021/05/17 08:28:48;;;;;;;4.53;1.60;;;13.90;99.90;;;;;;5017050;28;20292;-91
2021/05/17 08:31:21;;;;;;;5.03;2.03;;;13.80;99.90;;;;;;5016147;28;20623;-91
2021/05/17 08:33:53;;;;;;;5.37;1.83;;;13.90;99.90;;;;;;5017215;28;20563;-91
2021/05/17 08:36:25;;;;;;;3.73;1.80;;;13.80;99.90;;;;;;5017098;28;20240;-91
2021/05/17 08:38:56;;;;;;;2.30;1.50;;;13.80;99.90;;;;;;5017339;28;20276;-91
2021/05/17 08:41:27;;;;;;;4.73;2.07;;;13.90;99.90;;;;;;5015532;28;20222;-91
2021/05/17 08:43:59;;;;;;;2.80;1.47;;;13.80;99.90;;;;;;5029041;28;20233;-91
2021/05/17 08:46:30;;;;;;;6.13;2.40;;;13.80;99.90;;;;;;5037054;28;20239;-91
2021/05/17 08:49:03;;;;;;;5.10;2.77;;;13.80;99.90;;;;;;5037323;28;20598;-91
2021/05/17 08:51:35;;;;;;;5.10;2.93;;;13.60;99.90;;;;;;5018879;28;20255;-91
2021/05/17 08:54:08;;;;;;;6.87;3.03;;;13.60;99.90;;;;;;5036593;28;20209;-91
2021/05/17 08:56:43;;;;;;;4.47;3.03;;;13.50;99.90;;;;;;5036428;28;20212;-91
2021/05/17 08:59:15;;;;;;;7.40;3.10;;;13.40;99.90;;;;;;5036706;28;20247;-90
2021/05/17 09:01:47;;;;;;;5.50;3.37;;;13.40;99.90;;;;;;5035470;28;20640;-90
2021/05/17 09:04:20;;;;;;;5.93;3.53;;;13.30;99.90;;;;;;5035870;28;20233;-90
2021/05/17 09:06:54;;;;;;;5.87;3.07;;;13.30;99.90;;;;;;5036174;28;20209;-91
2021/05/17 09:09:27;;;;;;;6.17;3.10;;;13.20;99.90;;;;;;5035620;28;20235;-90
2021/05/17 09:11:59;;;;;;;6.50;3.63;;;13.20;99.90;;;;;;5035821;28;20605;-90
2021/05/17 09:14:31;;;;;;;6.90;3.43;;;13.20;99.90;;;;;;5038134;28;20627;-90
2021/05/17 09:17:04;;;;;;;9.37;3.63;;;13.20;99.90;;;;;;5038683;28;20298;-90
2021/05/17 09:19:40;;;;;;;7.57;2.90;;;13.20;99.90;;;;;;5040177;28;20208;-90
2021/05/17 09:22:14;;;;;;;4.27;3.23;;;13.20;99.90;;;;;;5041547;28;20207;-90
2021/05/17 09:24:50;;;;;;;6.23;3.50;;;13.20;99.90;;;;;;5051980;28;20286;-89
2021/05/17 09:27:23;;;;;;;6.23;3.20;;;13.20;99.90;;;;;;5055671;28;20196;-91
2021/05/17 09:29:54;;;;;;;4.73;2.97;;;13.10;99.90;;;;;;5056619;28;20210;-91
2021/05/17 09:32:26;;;;;;;5.50;3.57;;;13.10;99.90;;;;;;5056331;28;20272;-90
2021/05/17 09:35:06;;;;;;;5.47;3.07;;;13.00;99.90;;;;;;5055064;28;20213;-90
2021/05/17 09:37:47;;;;;;;4.83;3.40;;;12.80;99.90;;;;;;5054319;28;20239;-90
2021/05/17 09:40:20;;;;;;;4.50;3.07;;;12.80;99.90;;;;;;5050844;28;20208;-90
2021/05/17 09:43:04;;;;;;;6.17;3.20;;;12.80;99.90;;;;;;5036750;28;20558;-90
2021/05/17 09:45:47;;;;;;;8.70;3.17;;;12.70;99.90;;;;;;5036124;28;20595;-91
2021/05/17 09:48:18;;;;;;;4.50;2.73;;;12.50;99.90;;;;;;5035564;28;20209;-90
2021/05/17 09:51:16;;;;;;;4.57;3.27;;;12.40;99.90;;;;;;5034585;28;20216;-90
2021/05/17 09:53:49;;;;;;;4.80;3.23;;;12.30;99.90;;;;;;5035428;28;20209;-90
2021/05/17 09:56:23;;;;;;;4.00;3.47;;;12.30;99.90;;;;;;5035614;28;20213;-89
2021/05/17 09:58:58;;;;;;;5.93;3.57;;;12.20;99.90;;;;;;5036356;28;20208;-90
2021/05/17 10:01:30;;;;;;;7.73;4.23;;;12.10;99.90;;;;;;5020011;28;20208;-89
2021/05/17 10:04:04;;;;;;;10.73;4.17;;;12.00;99.90;;;;;;5050944;28;20217;-90
2021/05/17 10:06:37;;;;;;;4.43;3.87;;;12.00;99.90;;;;;;5055257;28;20201;-89
2021/05/17 10:09:09;;;;;;;5.67;3.90;;;11.90;99.90;;;;;;5053482;28;20197;-90
2021/05/17 10:11:41;;;;;;;6.13;3.60;;;11.90;99.90;;;;;;5036037;28;20260;-90
2021/05/17 10:14:12;;;;;;;6.20;3.97;;;11.90;99.90;;;;;;5035707;28;20728;-90
2021/05/17 10:16:43;;;;;;;5.63;3.73;;;11.90;99.90;;;;;;5035534;28;20274;-90
2021/05/17 10:19:16;;;;;;;5.03;3.57;;;11.90;99.90;;;;;;5035521;28;20240;-90
2021/05/17 10:21:49;;;;;;;4.37;3.63;;;12.00;99.90;;;;;;5034809;28;20623;-90
2021/05/17 10:24:23;;;;;;;7.17;4.07;;;12.10;99.90;;;;;;5040799;28;20228;-90
2021/05/17 10:27:06;;;;;;;4.60;4.03;;;12.10;99.90;;;;;;5035956;28;20224;-89
2021/05/17 10:29:39;;;;;;;5.30;4.20;;;12.00;99.90;;;;;;5037694;28;20205;-89
2021/05/17 10:32:10;;;;;;;7.60;3.93;;;11.90;99.90;;;;;;5036789;28;20257;-89
2021/05/17 10:34:52;;;;;;;7.17;4.30;;;12.00;99.90;;;;;;5038201;28;20212;-89
2021/05/17 10:37:25;;;;;;;6.50;4.70;;;12.00;99.90;;;;;;5038510;28;20209;-90
2021/05/17 10:40:03;;;;;;;5.97;4.30;;;12.00;99.90;;;;;;5017759;28;20205;-89
2021/05/17 10:42:48;;;;;;;6.20;4.77;;;11.90;99.90;;;;;;5034681;28;20216;-90
2021/05/17 10:48:23;;;;;;;7.13;4.10;;;11.90;99.90;;;;;;5037235;28;20239;-89
2021/05/17 10:51:10;;;;;;;4.93;3.73;;;11.80;99.90;;;;;;5041710;28;20228;-91
2021/05/17 10:53:49;;;;;;;6.47;4.30;;;11.80;99.90;;;;;;5048818;28;20235;-89
2021/05/17 10:56:40;;;;;;;4.20;3.80;;;11.70;99.90;;;;;;5023142;28;20684;-90
2021/05/17 11:02:00;;;;;;;4.77;3.77;;;11.60;99.90;;;;;;5036616;28;20224;-90
2021/05/17 11:04:34;;;;;;;6.50;4.37;;;11.60;99.90;;;;;;5038023;28;20267;-89
2021/05/17 11:07:20;;;;;;;7.50;4.43;;;11.50;99.90;;;;;;5041861;28;20680;-89
2021/05/17 11:10:10;;;;;;;8.00;4.20;;;11.50;99.90;;;;;;5017870;28;20221;-89
2021/05/17 11:13:11;;;;;;;5.90;3.77;;;11.60;99.90;;;;;;5017696;28;20255;-90
2021/05/17 11:15:58;;;;;;;5.33;4.00;;;11.60;99.90;;;;;;5017521;28;20269;-89
2021/05/17 11:18:43;;;;;;;5.13;3.40;;;11.60;99.90;;;;;;5017984;28;20294;-90
2021/05/17 11:21:27;;;;;;;4.53;3.97;;;11.60;99.90;;;;;;5016545;28;20215;-90
2021/05/17 11:24:09;;;;;;;5.80;3.67;;;11.60;99.90;;;;;;5019323;28;20596;-89
2021/05/17 11:26:59;;;;;;;3.90;3.20;;;11.80;99.90;;;;;;5017639;28;20641;-90
2021/05/17 11:29:31;;;;;;;5.63;3.23;;;11.90;99.90;;;;;;5020588;28;20264;-90
2021/05/17 11:32:21;;;;;;;3.60;2.83;;;11.90;99.90;;;;;;5017531;28;20206;-90
2021/05/17 11:35:09;;;;;;;5.00;3.03;;;11.90;99.90;;;;;;5020873;28;20209;-90
2021/05/17 11:38:11;;;;;;;3.73;2.83;;;12.00;99.90;;;;;;5018915;28;20269;-90
2021/05/17 11:40:51;;;;;;;5.80;3.10;;;11.80;99.90;;;;;;5019857;28;20557;-90
2021/05/17 11:43:23;;;;;;;3.67;2.67;;;11.90;99.90;;;;;;5018039;28;20201;-90
2021/05/17 11:45:55;;;;;;;5.60;3.03;;;12.00;99.90;;;;;;5017327;28;20283;-90
2021/05/17 11:48:28;;;;;;;4.27;2.80;;;11.90;99.90;;;;;;5017443;28;20296;-91
2021/05/17 11:50:59;;;;;;;4.37;2.70;;;12.00;99.90;;;;;;5016362;28;20222;-91
2021/05/17 11:53:31;;;;;;;4.63;3.00;;;12.00;99.90;;;;;;5017026;28;20229;-90
2021/05/17 11:56:05;;;;;;;2.93;2.53;;;12.10;99.90;;;;;;5017496;28;20209;-90
2021/05/17 11:58:37;;;;;;;3.50;2.33;;;12.10;99.90;;;;;;5017437;28;20259;-90
2021/05/17 12:01:18;;;;;;;3.70;2.67;;;12.10;99.90;;;;;;5016738;28;20233;-89
2021/05/17 12:03:49;;;;;;;5.23;2.47;;;12.20;99.90;;;;;;5017325;28;20242;-90
2021/05/17 12:06:21;;;;;;;4.77;3.13;;;12.20;99.90;;;;;;5000578;28;20213;-89
2021/05/17 12:08:52;;;;;;;4.53;2.40;;;12.20;99.90;;;;;;5017014;28;20240;-90
2021/05/17 12:11:23;;;;;;;4.23;3.00;;;12.20;99.90;;;;;;5015773;28;20222;-90
2021/05/17 12:14:05;;;;;;;4.90;2.60;;;12.10;99.90;;;;;;5016902;28;20237;-90
2021/05/17 12:16:36;;;;;;;3.67;2.57;;;12.10;99.90;;;;;;5017116;28;20213;-90
2021/05/17 12:19:07;;;;;;;4.83;2.83;;;12.10;99.90;;;;;;5000608;28;20272;-90
2021/05/17 12:21:39;;;;;;;3.90;3.23;;;12.10;99.90;;;;;;5000096;28;20275;-90
2021/05/17 12:24:23;;;;;;;4.40;3.33;;;12.10;99.90;;;;;;5026986;28;20241;-90
2021/05/17 12:26:59;;;;;;;2.97;2.60;;;11.90;99.90;;;;;;5037387;28;20254;-91
2021/05/17 12:29:59;;;;;;;3.43;3.10;;;12.00;99.90;;;;;;5055544;28;20213;-90
2021/05/17 12:32:42;;;;;;;4.37;3.03;;;11.90;99.90;;;;;;5036666;28;20213;-90
2021/05/17 12:35:16;;;;;;;3.40;2.83;;;11.90;99.90;;;;;;5041918;28;20232;-89
2021/05/17 12:37:49;;;;;;;5.57;3.20;;;11.90;99.90;;;;;;5038525;28;20212;-90
2021/05/17 12:40:38;;;;;;;4.10;2.90;;;11.90;99.90;;;;;;5038221;28;20320;-90
2021/05/17 12:43:12;;;;;;;4.33;3.23;;;11.90;99.90;;;;;;5040204;28;20209;-90
2021/05/17 12:45:58;;;;;;;3.90;3.03;;;11.90;99.90;;;;;;5036952;28;20236;-90
2021/05/17 12:48:32;;;;;;;3.50;3.20;;;11.90;99.90;;;;;;5036743;28;20213;-91
2021/05/17 12:51:14;;;;;;;3.60;3.17;;;11.90;99.90;;;;;;5037881;28;20217;-90
2021/05/17 12:53:46;;;;;;;3.90;3.00;;;11.70;99.90;;;;;;5036948;28;20221;-90
2021/05/17 12:56:25;;;;;;;2.57;2.37;;;11.60;99.90;;;;;;5036511;28;20247;-90
2021/05/17 12:58:56;;;;;;;4.10;2.23;;;11.60;99.90;;;;;;5035975;28;20212;-90
2021/05/17 13:01:28;;;;;;;6.63;1.97;;;11.50;99.90;;;;;;5035364;28;20213;-90
2021/05/17 13:04:00;;;;;;;1.70;1.60;;;11.50;99.90;;;;;;5035447;28;20220;-89
2021/05/17 13:06:33;;;;;;;2.10;1.50;;;11.50;99.90;;;;;;5035047;28;20204;-89
2021/05/17 13:09:07;;;;;;;4.90;1.70;;;11.50;99.90;;;;;;5036317;28;20580;-89
2021/05/17 13:11:39;;;;;;;4.80;2.00;;;11.50;99.90;;;;;;5034334;28;20196;-89
2021/05/17 13:14:21;;;;;;;2.67;1.87;;;11.50;99.90;;;;;;5035507;28;20286;-89
2021/05/17 13:17:04;;;;;;;5.47;2.23;;;11.30;99.90;;;;;;5035686;28;20266;-88
2021/05/17 13:19:44;;;;;;;8.70;3.20;;;11.20;99.90;;;;;;5035937;28;20247;-89
2021/05/17 13:30:54;;;;;;;3.13;2.10;;;11.10;99.90;;;;;;5034779;28;20247;-90
2021/05/17 13:33:46;;;;;;;3.57;2.00;;;11.10;99.90;;;;;;5019250;28;20262;-89
2021/05/17 13:36:18;;;;;;;5.53;1.93;;;11.00;99.90;;;;;;5035210;28;20220;-89
2021/05/17 13:38:49;;;;;;;4.00;2.50;;;11.00;99.90;;;;;;5035495;28;20216;-89
2021/05/17 13:41:23;;;;;;;3.37;2.17;;;11.10;99.90;;;;;;5034839;28;20243;-90
2021/05/17 13:44:15;;;;;;;5.43;2.40;;;11.10;99.90;;;;;;5035248;28;20213;-89
2021/05/17 13:46:46;;;;;;;3.13;2.70;;;11.00;99.90;;;;;;5017906;28;20274;-90